Terminal Aerodrome Forecast
Issued by NWS

Home | Current Version | Previous Version | Text Only | Print | Product List | Glossary On
Versions: 1 2 3 4 5 6 7 8 9 10 11 12 13 14 15 16 17 18
312
FTUS44 KMAF 211720
TAFPEQ
TAF
KPEQ 211720Z 2118/2218 10009KT P6SM SCT080 SCT250
      TEMPO 2119/2123 VRB25G35KT 5SM TSRA BKN070CB
     FM220200 10006KT P6SM SCT080 BKN200 PROB30 2203/2206 VRB25G35KT
      6SM TSRA BKN070CB=

USA.gov is the U.S. government's official web portal to all federal, state and local government web resources and services.